Terminal Aerodrome Forecast
Issued by NWS Newport/Morehead City, NC

Home | Current Version | Previous Version | Graphics & Text | Print | Product List | Glossary On
Versions: 1 2 3 4 5 6 7 8 9 10 11 12 13
000
FTUS42 KMHX 242320
TAFEWN
TAF
KEWN 242320Z 2500/2524 VRB02KT P6SM SCT250
     FM251200 VRB03KT P6SM BKN100
     FM251600 23006KT P6SM OVC050
     FM252000 22006KT 6SM -RA OVC015=

USA.gov is the U.S. government's official web portal to all federal, state and local government web resources and services.